x

Neah Bay, - 6nm North Of Cape Flattery, Wa (traffic Separation Lighted Buoy) (46087) Wave Buoy

7:50am - Fri 23rd Feb 2018 All times are PST. -8 hours from GMT.

  • Sig Wave height 4.9ft
  • Swell Direction
  • Peak Period 14s
  • Average Period 6s
  • Wind
    22mph, 29mph gusts
  • Sea Temp 46°f
  • Air Temp 40°f
  • Sea Pressure 1026.3mb
  • Neah Bay, - 6nm North Of Cape Flattery, Wa     (traffic Separation Lighted Buoy)
  • Neah Bay, - 6nm North Of Cape Flattery, Wa     (traffic Separation Lighted Buoy)

More Historic Weather Station data

Upgrade to MSW Pro to gain access to the past 30 days of data for over 8000 Wavebouys and Weather Stations around the globe.

Join

Comparision Forecast

View Surf forecast
   
Fri 02/23 7:50am 5ft 14s 6s 22 29 mph 1026.3mb 46f 40f
7:20am 5ft 16s 7s 22 25 mph 1026.8mb 46f 39f
6:50am 5ft 15s 8s 9 16 mph 1027.6mb 46f 39f
6:20am 5.5ft 14s 8s 13 20 mph 1027.9mb 46f 39f
5:50am 4.5ft 16s 7s 18 20 mph 1028.3mb 46f 39f
5:20am 5ft 16s 7s 16 20 mph 1028.7mb 46f 39f
4:50am 5ft 16s 8s 13 16 mph 1029.2mb 46f 38f
4:20am 4.5ft 16s 8s 7 9 mph 1029.6mb 46f 38f
3:50am 5ft 16s 9s 7 11 mph 1029.5mb 46f 38f
3:20am 4.5ft 16s 9s 7 11 mph 1029.8mb 46f 37f
2:50am 5ft 16s 9s 9 11 mph 1030mb 46f 37f
2:20am 4.5ft 16s 9s 7 9 mph 1030.2mb 46f 37f
1:50am 5ft 16s  -  7 9 mph 1030.3mb 46f 37f
1:20am 4.5ft 16s  -  9 11 mph 1030.4mb 46f 37f
12:50am 5ft 16s 9s 9 11 mph 1030.5mb 46f 37f
12:20am 4.5ft 16s 9s 9 11 mph 1030.5mb 45f 38f
Thu 02/22 11:50pm 4.5ft 16s 9s 7 9 mph 1030.7mb 45f 38f
11:20pm 5ft 16s 9s 4 7 mph 1030.7mb 45f 38f
10:50pm 5ft 16s 9s 7 9 mph 1030.6mb 45f 38f
10:20pm 4.5ft 16s 8s 7 11 mph 1030.3mb 45f 38f
9:50pm 5ft 16s 9s 4 9 mph 1030.3mb 45f 38f
9:20pm 4.5ft 17s 8s 4 7 mph 1030.3mb 46f 39f
8:50pm 4.5ft 17s 9s 4 9 mph 1030mb 46f 39f
8:20pm 4.5ft 17s 8s 7 9 mph 1029.7mb 46f 39f
7:50pm 4.5ft 17s 8s 7 9 mph 1029.6mb 46f 39f
7:20pm 4.5ft 17s 8s 4 7 mph 1029.5mb 46f 39f
6:50pm 4.5ft 17s 8s 4 7 mph 1029.4mb 46f 39f
6:20pm 4.5ft 17s 7s 2 4 mph 1029.4mb 46f 39f
5:50pm 4.5ft 17s 8s 4 9 mph 1029.1mb 46f 39f
5:20pm 4.5ft 17s 7s 7 9 mph 1028.9mb 46f 39f
4:50pm 5ft 17s 7s 4 9 mph 1028.9mb 46f 39f
4:20pm 4.5ft 10s 7s 7 9 mph 1028.8mb 46f 39f
3:50pm 5ft 11s 8s 7 11 mph 1028.7mb 46f 39f
3:20pm 5ft 9s 7s 7 11 mph 1028.5mb 46f 38f
2:50pm 5ft 12s 7s 9 11 mph 1028.3mb 46f 38f
2:20pm 5ft 8s 7s 11 13 mph 1028.3mb 46f 38f
1:50pm 5ft 8s 7s 11 13 mph 1028.3mb 46f 38f
1:20pm 4.5ft 9s 7s 11 16 mph 1028.4mb 46f 38f
12:50pm 4ft 9s 7s 11 13 mph 1028.5mb 46f 38f
12:20pm 4.5ft 8s 8s 4 7 mph 1028.7mb 46f 39f
11:50am 4.5ft 8s 8s 4 9 mph 1028.8mb 46f 38f
11:20am 4.5ft 9s 8s 7 11 mph 1028.7mb 46f 38f
10:50am 4.5ft 9s 8s 7 13 mph 1028.5mb 46f 38f
10:20am 4.5ft 9s 8s 11 16 mph 1028.3mb 46f 36f
9:50am 4.5ft 9s 8s 11 13 mph 1027.9mb 46f 36f
9:20am 4.5ft 9s 7s 9 11 mph 1027.5mb 45f 36f
8:50am 4.5ft 9s 8s 4 9 mph 1027.1mb 45f 36f
8:20am 4.5ft 10s 8s 7 9 mph 1026.9mb 45f 36f
7:50am 5ft 9s 8s 9 11 mph 1026.6mb 45f 35f
7:20am 4.5ft 9s 7s 9 13 mph 1026.2mb 45f 35f
6:50am 5ft 9s 7s 13 16 mph 1025.9mb 45f 35f
6:20am 5ft 10s 8s 9 11 mph 1025.8mb 45f 35f
5:50am 5ft 12s 7s 11 13 mph 1025.4mb 45f 35f
5:20am 5.5ft 10s 8s 9 11 mph 1025.2mb 45f 36f
4:50am 5.5ft 9s 7s 4 7 mph 1025.1mb 45f 35f
4:20am 6ft 9s 8s 9 13 mph 1024.6mb 45f 35f
3:50am 5ft 8s 8s 11 16 mph 1024.5mb 45f 35f
3:20am 3.5ft 11s 6s 11 13 mph 1024.5mb 45f 35f
2:50am 3.5ft 12s 6s 9 11 mph 1024.5mb 45f 36f
2:20am 3ft 13s 5s 9 13 mph 1024mb 46f 36f
1:50am 3.5ft 12s 6s 20 25 mph 1023.3mb 46f 37f
1:20am 3.5ft 12s 6s 13 18 mph 1023.2mb 46f 36f
12:50am 3.5ft 13s 6s 13 18 mph 1023mb 46f 36f
12:20am 3.5ft 12s 6s 16 20 mph 1022.4mb 46f 37f
Wed 02/21 11:50pm 3.5ft 13s 6s 13 18 mph 1022mb 46f 37f
11:20pm 3.5ft 13s 5s 13 18 mph 1022mb 46f 37f
10:50pm 3.5ft 13s 5s 18 25 mph 1021.5mb 46f 37f
10:20pm 3.5ft 12s 5s 20 25 mph 1021mb 46f 37f
9:50pm 3.5ft 14s 5s 20 25 mph 1020.5mb 46f 37f
9:20pm 3.5ft 12s 5s 18 20 mph 1020.6mb 46f 36f
8:50pm 3.5ft 13s 6s 18 20 mph 1020.4mb 46f 36f
8:20pm 3.5ft 13s 6s 16 20 mph 1020.4mb 46f 37f
7:50pm 3.5ft 13s 7s 13 16 mph 1020.6mb 46f 37f
7:20pm 3.5ft 14s 7s 13 16 mph 1020.7mb 46f 37f
6:50pm 4ft 14s 7s 11 16 mph 1021mb 46f 37f
6:20pm 4ft 14s 7s 9 13 mph 1021.4mb 46f 36f
5:50pm 4.5ft 14s 7s 9 13 mph 1021.5mb 46f 36f
5:20pm 4ft 14s 7s 11 13 mph 1021.6mb 46f 35f
4:50pm 4ft 14s 7s 13 16 mph 1021.7mb 45f 35f
4:20pm 4.5ft 14s 8s 13 18 mph 1022mb 45f 35f
3:50pm 4.5ft 13s 8s 13 18 mph 1022.2mb 45f 33f
3:20pm 4ft 14s 8s 13 18 mph 1022.6mb 45f 33f
2:50pm 4.5ft 13s 8s 9 13 mph 1023.3mb 45f 32f
2:20pm 4.5ft 14s 9s 9 13 mph 1023.7mb 45f 32f
1:50pm 4.5ft 12s 9s 9 11 mph 1024.2mb 46f 33f
1:20pm 4.5ft 14s 9s 7 11 mph 1024.2mb 46f 34f
12:50pm 4.5ft 13s 9s 9 11 mph 1024.6mb 46f 34f
12:20pm 3.5ft 14s 8s 7 11 mph 1025.1mb 46f 35f
11:50am 4.5ft 15s 9s 4 9 mph 1025.5mb 46f 36f
11:20am 4.5ft 13s 9s 7 9 mph 1025.6mb 46f 36f
10:50am 4ft 14s 9s 4 9 mph 1025.8mb 46f 36f
10:20am 3.5ft 13s 8s 7 11 mph 1025.8mb 46f 36f
9:50am 4ft 14s 8s 9 13 mph 1025.9mb 46f 36f
9:20am 4ft 15s 8s 11 13 mph 1025.8mb 46f 35f
8:50am 4ft 15s 8s 11 13 mph 1026mb 46f 35f
8:20am 4ft 14s 8s 9 13 mph 1026.4mb 46f 35f
7:50am 3.5ft 14s 7s 9 11 mph 1026.7mb 46f 35f
7:20am 3.5ft 14s 8s 11 13 mph 1026.5mb 46f 35f
6:50am 3.5ft 14s 7s 9 13 mph 1026.2mb 46f 35f
6:20am 3.5ft 14s 7s 7 11 mph 1026.5mb 46f 35f
5:50am 3.5ft 14s 7s 7 9 mph 1027.1mb 46f 35f
5:20am 3.5ft 14s 7s 11 13 mph 1026.8mb 46f 35f
4:50am 3.5ft 14s 7s 13 16 mph 1026.5mb 46f 35f
4:20am 3.5ft 14s 6s 11 13 mph 1026.5mb 46f 35f
3:50am 3.5ft 14s 7s 13 16 mph 1026.4mb 46f 35f
3:20am 3ft 14s 6s 13 18 mph 1026.8mb 46f 35f
2:50am 3ft 15s 6s 13 16 mph 1026.9mb 46f 36f
2:20am 3.5ft 15s 7s 13 16 mph 1026.9mb 46f 36f
1:50am 3ft 15s 7s 13 18 mph 1026.9mb 46f 36f
1:20am 3ft 15s 7s 9 13 mph 1027.2mb 46f 36f
12:50am 3ft 15s 7s 9 13 mph 1027.5mb 46f 36f
12:20am 3.5ft 15s 7s 4 7 mph 1027.5mb 46f 36f
Tue 02/20 11:50pm 3ft 15s 6s 7 9 mph 1027.4mb 46f 36f
11:20pm 3ft 15s 6s 11 13 mph 1027.2mb 46f 36f
10:50pm 3.5ft 15s 6s 16 18 mph 1026.6mb 46f 37f
10:20pm 3ft 15s 7s 13 18 mph 1026.3mb 46f 37f
9:50pm 3ft 15s 6s 11 16 mph 1026.2mb 46f 37f
9:20pm 3ft 15s 6s 11 13 mph 1025.9mb 46f 36f
8:50pm 3ft 15s 6s 13 16 mph 1025.4mb 46f 37f
8:20pm 3.5ft 15s 6s 16 20 mph 1024.9mb 46f 37f
7:50pm 3.5ft 15s 6s 13 18 mph 1024.7mb 46f 37f
7:20pm 3.5ft 15s 6s 16 20 mph 1024.6mb 46f 38f
6:50pm 3ft 16s 6s 13 18 mph 1024.3mb 46f 38f
6:20pm 3ft 15s 6s 16 20 mph 1023.8mb 46f 38f
5:50pm 2.5ft 15s 6s 13 18 mph 1023.4mb 46f 38f
5:20pm 3ft 15s 6s 16 20 mph 1022.9mb 46f 39f
4:50pm 3ft 15s 6s 16 18 mph 1022.6mb 46f 39f
4:20pm 3ft 15s 6s 13 18 mph 1022.2mb 46f 39f
3:50pm 3ft 16s 6s 11 16 mph 1022.1mb 46f 39f
3:20pm 2.5ft 15s 6s 13 16 mph 1021.8mb 46f 39f
2:50pm 3ft 16s 6s 13 18 mph 1021.6mb 46f 38f
2:20pm 3ft 16s 6s 13 16 mph 1021.5mb 46f 38f
1:50pm 3ft 16s 6s 13 18 mph 1021.5mb 46f 37f
1:20pm 3ft 15s 6s 13 18 mph 1021.4mb 46f 37f
12:50pm 3.5ft 16s 6s 13 18 mph 1021.6mb 46f 37f
12:20pm 3.5ft 16s 6s 13 16 mph 1021.9mb 46f 37f
11:50am 3.5ft 16s 5s 13 16 mph 1021.7mb 46f 36f
11:20am 3.5ft 16s 6s 13 18 mph 1021.7mb 46f 36f
10:50am 3ft 16s 5s 16 20 mph 1021.6mb 46f 36f
10:20am 3.5ft 16s 5s 18 20 mph 1021.5mb 46f 36f
9:50am 3ft 16s 5s 18 22 mph 1021.6mb 46f 35f
9:20am 3ft 16s 5s 20 22 mph 1021mb 46f 35f
8:50am 3.5ft 16s 5s 20 22 mph 1020.6mb 46f 36f
8:20am 3ft 16s 5s 20 22 mph 1020.4mb 46f 36f
7:50am 3ft 16s 5s 18 22 mph 1020.2mb 46f 36f
7:20am 3.5ft 16s 6s 18 22 mph 1020.3mb 46f 35f
6:50am 3ft 16s 5s 16 20 mph 1020.2mb 46f 36f
6:20am 3.5ft 16s 6s 16 20 mph 1020.3mb 46f 36f
5:50am 3.5ft 16s 6s 18 22 mph 1020.2mb 46f 36f
5:20am 3ft 16s 6s 16 22 mph 1020.3mb 46f 36f
4:50am 3ft 8s 6s 18 22 mph 1020.3mb 46f 36f
4:20am 3.5ft 8s 6s 18 22 mph 1020.4mb 46f 36f
3:50am 3.5ft 8s 6s 18 22 mph 1020.5mb 46f 36f
3:20am 3.5ft 9s 6s 18 22 mph 1020.7mb 46f 36f
2:50am 3.5ft 9s 6s 18 20 mph 1020.8mb 46f 36f
2:20am 3.5ft 9s 5s 18 20 mph 1021.1mb 46f 36f
1:50am 3.5ft 9s 6s 16 20 mph 1021.1mb 46f 36f
1:20am 3.5ft 9s 6s 16 18 mph 1021.2mb 46f 37f
12:50am 3.5ft 11s 7s 13 18 mph 1021.5mb 46f 37f
12:20am 3.5ft 9s 7s 13 16 mph 1021.6mb 46f 37f
Mon 02/19 11:50pm 3.5ft 9s 6s 11 16 mph 1021.8mb 46f 37f
11:20pm 3.5ft 9s 7s 13 18 mph 1021.9mb 46f 37f
10:50pm 3.5ft 8s 7s 13 18 mph 1021.9mb 46f 37f
10:20pm 3.5ft 10s 8s 13 16 mph 1021.9mb 46f 37f
9:50pm 3.5ft 10s 8s 13 16 mph 1021.9mb 46f 37f
9:20pm 4.5ft 10s 8s 11 16 mph 1021.8mb 46f 37f
8:20pm 4ft 9s 8s 9 11 mph 1022.1mb 46f 37f
7:50pm 4.5ft 10s 8s 7 11 mph 1022.1mb 46f 37f
7:20pm 4.5ft 10s 8s 4 9 mph 1022.3mb 46f 37f
6:50pm 4.5ft 9s 7s 7 9 mph 1022.3mb 46f 37f
6:20pm 4.5ft 10s 8s 4 9 mph 1022.1mb 46f 37f
5:50pm 4.5ft 9s 8s 7 11 mph 1022mb 46f 37f
5:20pm 4.5ft 10s 8s 7 11 mph 1021.9mb 46f 37f
4:50pm 5ft 9s 8s 9 11 mph 1022.1mb 46f 37f